createdAt,value
2019-05-21T00:01:33.968Z,100.00
2019-05-21T00:04:03.308Z,100.00
2019-05-21T00:06:32.815Z,100.00
2019-05-21T00:09:03.440Z,99.98
2019-05-21T00:11:34.546Z,99.34
2019-05-21T00:14:03.908Z,98.90
2019-05-21T00:16:33.237Z,98.39
2019-05-21T00:19:02.588Z,98.52
2019-05-21T00:21:32.875Z,98.49
2019-05-21T00:24:02.248Z,98.54
2019-05-21T00:26:31.565Z,98.56
2019-05-21T00:29:36.432Z,98.71
2019-05-21T00:32:41.521Z,98.57
2019-05-21T00:35:49.712Z,98.74
2019-05-21T00:38:54.668Z,98.92
2019-05-21T00:41:59.772Z,98.97
2019-05-21T00:44:30.584Z,98.91
2019-05-21T00:47:00.069Z,98.93
2019-05-21T00:49:29.453Z,99.04
2019-05-21T00:52:07.046Z,99.11
2019-05-21T00:54:29.858Z,99.50
2019-05-21T00:56:59.199Z,99.41
2019-05-21T00:59:28.541Z,99.08
2019-05-21T01:01:57.882Z,98.91
2019-05-21T01:04:27.312Z,98.86
2019-05-21T01:06:56.668Z,99.15
2019-05-21T01:09:26.024Z,100.00
2019-05-21T01:11:55.342Z,100.00
2019-05-21T01:14:24.822Z,100.00
2019-05-21T01:16:54.228Z,100.00
2019-05-21T01:19:23.522Z,100.00
2019-05-21T01:21:52.842Z,100.00
2019-05-21T01:24:22.208Z,99.88
2019-05-21T01:26:51.569Z,99.89
2019-05-21T01:29:20.895Z,100.00
2019-05-21T01:31:50.262Z,100.00
2019-05-21T01:34:19.637Z,100.00
2019-05-21T01:36:48.987Z,100.00
2019-05-21T01:39:18.422Z,100.00
2019-05-21T01:41:48.141Z,100.00
2019-05-21T01:44:17.513Z,100.00
2019-05-21T01:46:46.893Z,100.00
2019-05-21T01:49:16.254Z,100.00
2019-05-21T01:51:45.595Z,100.00
2019-05-21T01:54:15.106Z,100.00
2019-05-21T01:56:45.621Z,100.00
2019-05-21T01:59:14.966Z,100.00
2019-05-21T02:01:45.464Z,100.00
2019-05-21T02:04:14.808Z,100.00
2019-05-21T02:06:44.453Z,100.00
2019-05-21T02:09:13.969Z,100.00
2019-05-21T02:11:43.305Z,100.00
2019-05-21T02:14:12.686Z,100.00
2019-05-21T02:16:42.059Z,100.00
2019-05-21T02:19:11.390Z,100.00
2019-05-21T02:21:40.794Z,100.00
2019-05-21T02:24:10.175Z,100.00
2019-05-21T02:26:39.539Z,100.00
2019-05-21T02:29:08.877Z,100.00
2019-05-21T02:31:38.218Z,100.00
2019-05-21T02:34:07.574Z,100.00
2019-05-21T02:36:36.916Z,100.00
2019-05-21T02:39:07.575Z,100.00
2019-05-21T02:41:36.959Z,100.00
2019-05-21T02:44:06.384Z,100.00
2019-05-21T02:46:36.515Z,100.00
2019-05-21T02:49:05.881Z,100.00
2019-05-21T02:51:35.233Z,100.00
2019-05-21T02:54:04.579Z,100.00
2019-05-21T02:56:33.940Z,100.00
2019-05-21T02:59:03.283Z,100.00
2019-05-21T03:01:41.453Z,100.00
2019-05-21T03:04:10.815Z,100.00
2019-05-21T03:06:40.167Z,100.00
2019-05-21T03:09:09.517Z,100.00
2019-05-21T03:11:39.019Z,100.00
2019-05-21T03:14:08.356Z,100.00
2019-05-21T03:16:37.677Z,100.00
2019-05-21T03:19:07.023Z,100.00
2019-05-21T03:21:36.343Z,100.00
2019-05-21T03:24:05.725Z,100.00
2019-05-21T03:26:35.090Z,100.00
2019-05-21T03:29:04.449Z,100.00
2019-05-21T03:31:33.822Z,100.00
2019-05-21T03:34:03.150Z,100.00
2019-05-21T03:36:34.276Z,100.00
2019-05-21T03:39:04.959Z,100.00
2019-05-21T03:41:34.361Z,100.00
2019-05-21T03:44:03.696Z,100.00
2019-05-21T03:46:33.240Z,99.88
2019-05-21T03:49:02.586Z,99.64
2019-05-21T03:51:31.987Z,99.58
2019-05-21T03:54:01.389Z,99.41
2019-05-21T03:56:30.758Z,99.30
2019-05-21T03:59:00.100Z,99.39
2019-05-21T04:01:29.417Z,99.34
2019-05-21T04:03:58.784Z,98.04
2019-05-21T04:06:29.020Z,97.74
2019-05-21T04:08:58.512Z,97.33
2019-05-21T04:11:27.854Z,97.53
2019-05-21T04:13:57.190Z,97.22
2019-05-21T04:16:45.465Z,97.39
2019-05-21T04:19:18.691Z,97.11
2019-05-21T04:21:48.030Z,96.25
2019-05-21T04:24:17.376Z,95.64
2019-05-21T04:26:46.771Z,95.30
2019-05-21T04:29:16.188Z,95.50
2019-05-21T04:31:45.537Z,95.50
2019-05-21T04:34:15.327Z,96.10
2019-05-21T04:36:44.832Z,96.28
2019-05-21T04:39:14.233Z,95.85
2019-05-21T04:41:43.638Z,95.75
2019-05-21T04:44:13.000Z,94.85
2019-05-21T04:46:42.317Z,94.10
2019-05-21T04:49:11.774Z,94.00
2019-05-21T04:51:41.417Z,92.98
2019-05-21T04:54:10.781Z,92.52
2019-05-21T04:56:40.182Z,91.82
2019-05-21T04:59:09.552Z,92.32
2019-05-21T05:01:38.876Z,91.53
2019-05-21T05:04:08.659Z,91.15
2019-05-21T05:06:38.042Z,90.52
2019-05-21T05:09:07.665Z,88.79
2019-05-21T05:11:37.075Z,87.66
2019-05-21T05:14:06.517Z,88.60
2019-05-21T05:16:35.963Z,88.28
2019-05-21T05:19:05.391Z,88.06
2019-05-21T05:21:34.793Z,87.21
2019-05-21T05:24:04.125Z,87.09
2019-05-21T05:26:33.480Z,87.60
2019-05-21T05:29:02.887Z,86.38
2019-05-21T05:31:32.253Z,84.67
2019-05-21T05:34:01.691Z,84.89
2019-05-21T05:36:31.099Z,81.81
2019-05-21T05:39:00.470Z,80.76
2019-05-21T05:41:29.801Z,81.46
2019-05-21T05:43:59.228Z,81.40
2019-05-21T05:46:28.603Z,81.44
2019-05-21T05:49:06.348Z,81.67
2019-05-21T05:51:35.701Z,81.17
2019-05-21T05:54:07.722Z,80.26
2019-05-21T05:56:36.131Z,81.19
2019-05-21T05:59:05.626Z,80.72
2019-05-21T06:01:35.113Z,81.30
2019-05-21T06:04:04.591Z,79.66
2019-05-21T06:06:33.964Z,78.67
2019-05-21T06:09:04.808Z,77.63
2019-05-21T06:11:34.175Z,77.56
2019-05-21T06:14:03.537Z,76.96
2019-05-21T06:16:32.880Z,75.85
2019-05-21T06:19:04.763Z,76.04
2019-05-21T06:21:34.108Z,75.76
2019-05-21T06:24:03.443Z,73.29
2019-05-21T06:26:32.786Z,72.85
2019-05-21T06:29:02.179Z,72.85
2019-05-21T06:31:31.601Z,74.56
2019-05-21T06:34:01.026Z,74.56
2019-05-21T06:36:30.412Z,74.14
2019-05-21T06:38:59.804Z,72.23
2019-05-21T06:41:29.226Z,72.41
2019-05-21T06:43:58.747Z,71.36
2019-05-21T06:46:28.160Z,71.37
2019-05-21T06:48:58.042Z,71.24
2019-05-21T06:51:27.471Z,69.99
2019-05-21T06:53:56.811Z,68.49
2019-05-21T06:56:26.168Z,68.18
2019-05-21T06:58:57.059Z,63.19
2019-05-21T07:01:28.718Z,63.55
2019-05-21T07:03:57.564Z,64.21
2019-05-21T07:06:26.919Z,61.89
2019-05-21T07:08:56.309Z,63.01
2019-05-21T07:11:25.732Z,63.61
2019-05-21T07:13:55.140Z,65.05
2019-05-21T07:16:24.522Z,66.63
2019-05-21T07:18:53.914Z,61.19
2019-05-21T07:21:23.332Z,63.45
2019-05-21T07:23:52.648Z,65.63
2019-05-21T07:26:22.003Z,65.87
2019-05-21T07:28:52.922Z,66.53
2019-05-21T07:31:22.585Z,67.14
2019-05-21T07:33:52.931Z,66.46
2019-05-21T07:36:22.281Z,66.06
2019-05-21T07:38:53.863Z,65.36
2019-05-21T07:41:22.758Z,65.94
2019-05-21T07:43:52.215Z,65.42
2019-05-21T07:46:21.601Z,63.92
2019-05-21T07:48:50.968Z,64.10
2019-05-21T07:51:20.375Z,63.38
2019-05-21T07:53:49.738Z,62.24
2019-05-21T07:56:19.109Z,62.45
2019-05-21T07:58:48.500Z,61.65
2019-05-21T08:01:17.882Z,61.20
2019-05-21T08:03:47.202Z,58.79
2019-05-21T08:06:16.603Z,58.42
2019-05-21T08:08:45.986Z,59.35
2019-05-21T08:11:15.447Z,57.26
2019-05-21T08:13:44.835Z,57.73
2019-05-21T08:16:14.293Z,57.82
2019-05-21T08:18:43.665Z,58.83
2019-05-21T08:21:13.040Z,58.91
2019-05-21T08:23:42.414Z,57.01
2019-05-21T08:26:11.790Z,56.98
2019-05-21T08:28:41.173Z,56.50
2019-05-21T08:31:10.587Z,57.17
2019-05-21T08:33:40.504Z,58.04
2019-05-21T08:36:09.918Z,57.23
2019-05-21T08:38:39.398Z,55.90
2019-05-21T08:41:08.820Z,56.45
2019-05-21T08:43:38.204Z,57.70
2019-05-21T08:46:07.683Z,57.43
2019-05-21T08:48:37.054Z,54.03
2019-05-21T08:51:06.559Z,53.47
2019-05-21T08:53:35.891Z,52.89
2019-05-21T08:56:05.338Z,52.68
2019-05-21T08:58:34.743Z,53.51
2019-05-21T09:01:04.220Z,53.85
2019-05-21T09:03:33.515Z,53.40
2019-05-21T09:06:02.865Z,53.95
2019-05-21T09:08:32.249Z,53.23
2019-05-21T09:11:01.655Z,53.51
2019-05-21T09:13:31.458Z,53.19
2019-05-21T09:16:00.866Z,52.49
2019-05-21T09:18:30.225Z,54.18
2019-05-21T09:20:59.563Z,53.11
2019-05-21T09:23:29.002Z,50.92
2019-05-21T09:25:58.468Z,51.55
2019-05-21T09:28:27.806Z,52.72
2019-05-21T09:30:57.154Z,50.81
2019-05-21T09:33:26.546Z,50.07
2019-05-21T09:35:55.985Z,51.02
2019-05-21T09:38:25.324Z,51.13
2019-05-21T09:40:54.784Z,51.46
2019-05-21T09:43:24.111Z,48.54
2019-05-21T09:45:53.454Z,46.82
2019-05-21T09:48:22.773Z,42.55
2019-05-21T09:50:52.133Z,43.35
2019-05-21T09:53:21.492Z,45.61
2019-05-21T09:55:50.905Z,44.77
2019-05-21T09:58:28.432Z,42.70
2019-05-21T10:01:05.707Z,42.67
2019-05-21T10:03:37.943Z,41.27
2019-05-21T10:06:07.296Z,43.49
2019-05-21T10:08:37.292Z,45.46
2019-05-21T10:11:06.747Z,42.32
2019-05-21T10:13:36.152Z,42.75
2019-05-21T10:16:05.519Z,39.34
2019-05-21T10:18:34.850Z,40.15
2019-05-21T10:21:04.179Z,39.81
2019-05-21T10:23:36.593Z,39.74
2019-05-21T10:26:06.059Z,40.39
2019-05-21T10:28:35.399Z,39.68
2019-05-21T10:31:04.753Z,38.59
2019-05-21T10:33:34.112Z,39.90
2019-05-21T10:36:03.502Z,36.54
2019-05-21T10:38:32.869Z,35.82
2019-05-21T10:41:02.368Z,35.30
2019-05-21T10:43:31.830Z,36.19
2019-05-21T10:46:01.175Z,35.90
2019-05-21T10:48:30.521Z,36.35
2019-05-21T10:50:59.852Z,34.59
2019-05-21T10:53:29.198Z,35.63
2019-05-21T10:55:58.556Z,34.05
2019-05-21T10:58:27.894Z,34.47
2019-05-21T11:01:06.006Z,34.24
2019-05-21T11:04:11.977Z,33.68
2019-05-21T11:06:41.637Z,34.07
2019-05-21T11:09:17.472Z,34.44
2019-05-21T11:11:46.861Z,34.68
2019-05-21T11:14:21.152Z,35.97
2019-05-21T11:16:50.592Z,34.79
2019-05-21T11:19:19.944Z,34.49
2019-05-21T11:21:49.243Z,35.04
2019-05-21T11:24:18.609Z,34.12
2019-05-21T11:26:48.065Z,34.45
2019-05-21T11:29:17.376Z,34.59
2019-05-21T11:31:56.526Z,34.47
2019-05-21T11:34:17.842Z,34.14
2019-05-21T11:36:47.277Z,32.87
2019-05-21T11:39:16.601Z,33.63
2019-05-21T11:41:46.038Z,35.65
2019-05-21T11:44:15.374Z,40.64
2019-05-21T11:46:44.765Z,44.51
2019-05-21T11:49:14.117Z,46.80
2019-05-21T11:51:43.433Z,49.03
2019-05-21T11:54:12.812Z,50.71
2019-05-21T11:56:42.196Z,49.58
2019-05-21T11:59:11.621Z,47.54
2019-05-21T12:01:40.991Z,45.93
2019-05-21T12:04:10.347Z,45.82
2019-05-21T12:06:39.785Z,46.91
2019-05-21T12:09:09.695Z,47.18
2019-05-21T12:11:39.093Z,46.56
2019-05-21T12:14:08.450Z,46.87
2019-05-21T12:16:37.799Z,46.93
2019-05-21T12:19:08.217Z,46.82
2019-05-21T12:21:37.999Z,47.12
2019-05-21T12:24:07.323Z,46.28
2019-05-21T12:26:37.000Z,44.44
2019-05-21T12:29:06.408Z,42.42
2019-05-21T12:31:35.727Z,43.80
2019-05-21T12:34:05.345Z,43.72
2019-05-21T12:36:34.754Z,42.92
2019-05-21T12:39:14.223Z,42.63
2019-05-21T12:41:36.626Z,42.77
2019-05-21T12:44:05.950Z,42.36
2019-05-21T12:46:35.793Z,40.86
2019-05-21T12:49:05.176Z,41.57
2019-05-21T12:51:34.540Z,43.38
2019-05-21T12:54:03.908Z,43.66
2019-05-21T12:56:33.295Z,44.58
2019-05-21T12:59:02.795Z,43.46
2019-05-21T13:01:32.242Z,43.72
2019-05-21T13:04:01.579Z,42.96
2019-05-21T13:06:30.953Z,43.64
2019-05-21T13:09:00.629Z,43.98
2019-05-21T13:11:30.807Z,43.86
2019-05-21T13:14:00.159Z,43.99
2019-05-21T13:16:29.576Z,43.60
2019-05-21T13:18:59.000Z,45.44
2019-05-21T13:21:28.387Z,44.19
2019-05-21T13:23:57.729Z,45.18
2019-05-21T13:26:27.076Z,46.01
2019-05-21T13:28:56.417Z,46.65
2019-05-21T13:31:25.734Z,48.64
2019-05-21T13:33:55.081Z,48.67
2019-05-21T13:36:24.434Z,50.14
2019-05-21T13:38:53.773Z,49.71
2019-05-21T13:41:23.130Z,49.83
2019-05-21T13:43:52.530Z,49.02
2019-05-21T13:46:22.120Z,47.00
2019-05-21T13:48:51.510Z,44.44
2019-05-21T13:51:20.842Z,44.98
2019-05-21T13:53:50.174Z,45.20
2019-05-21T13:56:19.567Z,45.23
2019-05-21T13:58:48.932Z,44.57
2019-05-21T14:01:19.757Z,44.27
2019-05-21T14:03:49.237Z,45.53
2019-05-21T14:06:20.430Z,45.22
2019-05-21T14:08:49.662Z,45.68
2019-05-21T14:11:18.993Z,46.25
2019-05-21T14:13:48.364Z,46.50
2019-05-21T14:16:17.692Z,49.62
2019-05-21T14:18:47.059Z,48.71
2019-05-21T14:21:16.398Z,48.92
2019-05-21T14:23:45.779Z,46.01
2019-05-21T14:26:15.264Z,44.37
2019-05-21T14:28:44.698Z,41.97
2019-05-21T14:31:14.054Z,40.33
2019-05-21T14:33:46.647Z,40.95
2019-05-21T14:36:14.514Z,41.50
2019-05-21T14:38:43.866Z,43.16
2019-05-21T14:41:13.228Z,43.81
2019-05-21T14:43:42.557Z,45.63
2019-05-21T14:46:11.979Z,46.94
2019-05-21T14:48:41.333Z,45.64
2019-05-21T14:51:13.391Z,44.74
2019-05-21T14:53:41.790Z,44.50
2019-05-21T14:56:11.177Z,43.62
2019-05-21T14:58:40.574Z,43.00
2019-05-21T15:01:10.050Z,42.32
2019-05-21T15:03:39.377Z,42.04
2019-05-21T15:06:08.782Z,41.51
2019-05-21T15:08:38.174Z,41.00
2019-05-21T15:11:07.541Z,40.96
2019-05-21T15:13:36.909Z,40.61
2019-05-21T15:16:06.324Z,40.00
2019-05-21T15:18:35.716Z,39.77
2019-05-21T15:21:29.851Z,38.96
2019-05-21T15:23:59.338Z,38.78
2019-05-21T15:26:28.691Z,39.15
2019-05-21T15:28:58.087Z,39.79
2019-05-21T15:31:27.418Z,39.92
2019-05-21T15:33:56.791Z,40.40
2019-05-21T15:36:26.179Z,41.01
2019-05-21T15:38:55.549Z,41.07
2019-05-21T15:41:24.921Z,42.58
2019-05-21T15:43:54.314Z,43.79
2019-05-21T15:46:23.746Z,45.53
2019-05-21T15:48:53.113Z,44.61
2019-05-21T15:51:22.524Z,46.20
2019-05-21T15:53:51.907Z,47.28
2019-05-21T15:56:21.285Z,48.70
2019-05-21T15:58:50.663Z,51.63
2019-05-21T16:01:20.080Z,51.76
2019-05-21T16:03:49.454Z,51.19
2019-05-21T16:06:18.915Z,51.96
2019-05-21T16:08:48.595Z,52.42
2019-05-21T16:11:28.092Z,51.70
2019-05-21T16:13:49.105Z,52.29
2019-05-21T16:16:18.525Z,52.77
2019-05-21T16:18:47.866Z,53.05
2019-05-21T16:21:17.516Z,52.43
2019-05-21T16:23:46.914Z,52.14
2019-05-21T16:26:16.356Z,52.48
2019-05-21T16:28:45.690Z,51.12
2019-05-21T16:31:15.090Z,49.77
2019-05-21T16:33:44.431Z,47.84
2019-05-21T16:36:13.990Z,47.83
2019-05-21T16:38:43.403Z,47.88
2019-05-21T16:41:12.767Z,47.29
2019-05-21T16:43:42.113Z,45.96
2019-05-21T16:46:11.623Z,46.93
2019-05-21T16:48:40.963Z,47.11
2019-05-21T16:51:10.345Z,47.58
2019-05-21T16:53:39.709Z,48.09
2019-05-21T16:56:09.246Z,47.94
2019-05-21T16:58:38.602Z,48.49
2019-05-21T17:01:08.028Z,48.33
2019-05-21T17:03:37.435Z,48.67
2019-05-21T17:06:07.121Z,49.02
2019-05-21T17:08:36.672Z,48.90
2019-05-21T17:11:06.115Z,48.67
2019-05-21T17:13:35.554Z,49.39
2019-05-21T17:16:05.051Z,49.39
2019-05-21T17:18:34.457Z,49.34
2019-05-21T17:21:03.858Z,48.76
2019-05-21T17:23:34.280Z,48.99
2019-05-21T17:26:03.686Z,48.90
2019-05-21T17:28:33.174Z,48.82
2019-05-21T17:31:02.619Z,49.41
2019-05-21T17:33:32.141Z,49.41
2019-05-21T17:36:01.501Z,50.09
2019-05-21T17:38:31.115Z,50.22
2019-05-21T17:41:00.583Z,51.02
2019-05-21T17:43:29.948Z,52.36
2019-05-21T17:45:59.577Z,52.70
2019-05-21T17:48:28.954Z,52.81
2019-05-21T17:50:58.650Z,53.12
2019-05-21T17:53:28.172Z,52.80
2019-05-21T17:55:57.493Z,53.02
2019-05-21T17:58:27.035Z,53.44
2019-05-21T18:01:00.188Z,53.44
2019-05-21T18:03:29.759Z,52.88
2019-05-21T18:05:59.813Z,52.91
2019-05-21T18:08:30.172Z,52.88
2019-05-21T18:11:00.660Z,52.84
2019-05-21T18:13:31.107Z,54.61
2019-05-21T18:16:00.480Z,53.33
2019-05-21T18:18:30.306Z,54.64
2019-05-21T18:20:59.875Z,54.25
2019-05-21T18:23:29.291Z,55.78
2019-05-21T18:25:59.001Z,55.70
2019-05-21T18:28:28.537Z,53.34
2019-05-21T18:30:57.989Z,54.80
2019-05-21T18:33:27.349Z,55.45
2019-05-21T18:35:56.877Z,55.50
2019-05-21T18:38:26.613Z,55.27
2019-05-21T18:40:56.000Z,57.41
2019-05-21T18:43:25.618Z,56.66
2019-05-21T18:45:55.232Z,56.71
2019-05-21T18:48:24.703Z,57.97
2019-05-21T18:50:54.030Z,58.13
2019-05-21T18:53:23.381Z,57.67
2019-05-21T18:55:52.773Z,59.56
2019-05-21T18:58:22.213Z,58.43
2019-05-21T19:00:51.560Z,59.40
2019-05-21T19:03:28.015Z,60.58
2019-05-21T19:05:52.307Z,60.00
2019-05-21T19:08:21.831Z,59.32
2019-05-21T19:10:51.357Z,59.76
2019-05-21T19:13:20.697Z,59.19
2019-05-21T19:15:50.071Z,59.19
2019-05-21T19:18:19.641Z,58.23
2019-05-21T19:20:50.052Z,57.96
2019-05-21T19:23:19.628Z,58.60
2019-05-21T19:25:49.058Z,58.60
2019-05-21T19:28:18.527Z,59.20
2019-05-21T19:30:47.898Z,59.20
2019-05-21T19:33:17.347Z,58.72
2019-05-21T19:35:46.685Z,59.23
2019-05-21T19:38:16.980Z,59.21
2019-05-21T19:40:46.941Z,59.21
2019-05-21T19:43:16.500Z,58.64
2019-05-21T19:45:46.129Z,59.34
2019-05-21T19:48:15.578Z,59.59
2019-05-21T19:50:45.176Z,59.81
2019-05-21T19:53:14.791Z,60.04
2019-05-21T19:55:44.551Z,60.68
2019-05-21T19:58:14.137Z,60.58
2019-05-21T20:00:51.725Z,60.83
2019-05-21T20:03:21.502Z,60.96
2019-05-21T20:05:51.007Z,61.28
2019-05-21T20:08:20.505Z,61.93
2019-05-21T20:10:49.970Z,62.28
2019-05-21T20:13:31.801Z,62.78
2019-05-21T20:15:50.785Z,62.59
2019-05-21T20:18:20.323Z,62.54
2019-05-21T20:20:50.828Z,62.68
2019-05-21T20:23:21.412Z,62.68
2019-05-21T20:25:56.462Z,62.32
2019-05-21T20:28:22.655Z,62.53
2019-05-21T20:30:52.082Z,62.46
2019-05-21T20:33:21.510Z,62.43
2019-05-21T20:35:52.769Z,62.84
2019-05-21T20:38:23.618Z,63.09
2019-05-21T20:40:53.666Z,63.78
2019-05-21T20:43:23.278Z,65.09
2019-05-21T20:45:59.589Z,65.33
2019-05-21T20:48:32.200Z,66.19
2019-05-21T20:51:02.378Z,66.87
2019-05-21T20:53:32.697Z,66.52
2019-05-21T20:56:02.690Z,66.59
2019-05-21T20:58:32.367Z,66.08
2019-05-21T21:01:02.202Z,66.55
2019-05-21T21:03:32.768Z,66.56
2019-05-21T21:06:03.349Z,65.29
2019-05-21T21:08:36.678Z,65.89
2019-05-21T21:11:07.934Z,64.85
2019-05-21T21:13:37.679Z,65.80
2019-05-21T21:16:07.418Z,66.48
2019-05-21T21:18:36.817Z,66.07
2019-05-21T21:21:06.606Z,65.94
2019-05-21T21:23:37.208Z,65.05
2019-05-21T21:26:06.695Z,65.85
2019-05-21T21:28:36.397Z,65.38
2019-05-21T21:31:06.730Z,66.24
2019-05-21T21:33:36.259Z,66.31
2019-05-21T21:36:05.824Z,67.06
2019-05-21T21:38:37.542Z,66.36
2019-05-21T21:41:08.351Z,66.44
2019-05-21T21:43:37.694Z,67.03
2019-05-21T21:46:07.572Z,66.79
2019-05-21T21:48:37.389Z,66.92
2019-05-21T21:51:08.062Z,66.09
2019-05-21T21:53:39.310Z,65.23
2019-05-21T21:56:08.852Z,65.81
2019-05-21T21:58:38.274Z,66.18
2019-05-21T22:01:52.332Z,66.49
2019-05-21T22:04:25.494Z,67.07
2019-05-21T22:06:56.176Z,67.04
2019-05-21T22:09:34.985Z,66.55
2019-05-21T22:12:06.153Z,67.60
2019-05-21T22:14:49.778Z,67.70
2019-05-21T22:17:09.748Z,67.42
2019-05-21T22:19:40.111Z,67.04
2019-05-21T22:22:10.712Z,69.65
2019-05-21T22:24:40.236Z,70.32
2019-05-21T22:27:09.820Z,70.04
2019-05-21T22:29:39.531Z,68.93
2019-05-21T22:32:08.902Z,70.55
2019-05-21T22:34:38.404Z,69.47
2019-05-21T22:37:09.629Z,69.23
2019-05-21T22:39:40.750Z,69.10
2019-05-21T22:42:11.123Z,70.10
2019-05-21T22:44:40.637Z,70.21
2019-05-21T22:47:10.212Z,70.57
2019-05-21T22:49:39.681Z,70.80
2019-05-21T22:52:09.086Z,69.67
2019-05-21T22:54:38.617Z,70.91
2019-05-21T22:57:08.088Z,71.30
2019-05-21T22:59:37.456Z,71.87
2019-05-21T23:02:10.210Z,71.60
2019-05-21T23:04:39.647Z,70.85
2019-05-21T23:07:09.113Z,71.01
2019-05-21T23:09:38.505Z,70.48
2019-05-21T23:12:08.707Z,70.07
2019-05-21T23:14:38.165Z,70.48
2019-05-21T23:17:08.948Z,70.58
2019-05-21T23:19:39.052Z,69.85
2019-05-21T23:22:11.623Z,70.54
2019-05-21T23:24:41.576Z,70.31
2019-05-21T23:27:12.300Z,70.40
2019-05-21T23:29:42.382Z,70.14
2019-05-21T23:32:12.942Z,69.97
2019-05-21T23:34:44.071Z,69.76
2019-05-21T23:37:19.717Z,69.45
2019-05-21T23:39:52.080Z,71.26
2019-05-21T23:42:29.382Z,71.67
2019-05-21T23:44:52.678Z,71.71
2019-05-21T23:47:22.216Z,72.92
2019-05-21T23:49:51.681Z,73.14
2019-05-21T23:52:21.303Z,73.69
2019-05-21T23:54:50.706Z,74.55
2019-05-21T23:57:27.310Z,75.17
2019-05-21T23:59:57.096Z,75.06
